createdAt,value
2022-08-26T00:01:53.822Z,7.53
2022-08-26T00:04:24.952Z,7.88
2022-08-26T00:06:53.846Z,7.63
2022-08-26T00:09:21.986Z,7.07
2022-08-26T00:11:49.989Z,7.85
2022-08-26T00:14:18.722Z,7.80
2022-08-26T00:16:47.479Z,7.63
2022-08-26T00:19:15.982Z,7.75
2022-08-26T00:21:45.422Z,8.00
2022-08-26T00:24:13.295Z,7.45
2022-08-26T00:26:41.760Z,7.85
2022-08-26T00:29:10.772Z,8.00
2022-08-26T00:31:38.524Z,7.70
2022-08-26T00:34:09.350Z,7.82
2022-08-26T00:36:37.427Z,7.38
2022-08-26T00:39:08.334Z,8.30
2022-08-26T00:41:35.962Z,8.38
2022-08-26T00:44:04.124Z,7.85
2022-08-26T00:46:36.127Z,7.80
2022-08-26T00:49:12.180Z,7.88
2022-08-26T00:51:44.894Z,8.15
2022-08-26T00:54:16.198Z,7.65
2022-08-26T00:56:49.943Z,7.38
2022-08-26T00:59:18.800Z,7.55
2022-08-26T01:01:47.109Z,7.60
2022-08-26T01:04:18.771Z,7.82
2022-08-26T01:06:47.642Z,7.97
2022-08-26T01:09:17.559Z,7.88
2022-08-26T01:11:46.083Z,8.43
2022-08-26T01:14:15.047Z,8.57
2022-08-26T01:16:44.187Z,8.20
2022-08-26T01:19:20.427Z,8.45
2022-08-26T01:21:55.661Z,8.38
2022-08-26T01:24:25.987Z,8.48
2022-08-26T01:26:58.983Z,7.88
2022-08-26T01:29:27.285Z,8.27
2022-08-26T01:31:57.439Z,8.18
2022-08-26T01:34:28.779Z,8.25
2022-08-26T01:37:02.396Z,8.38
2022-08-26T01:39:32.485Z,8.50
2022-08-26T01:42:03.035Z,8.40
2022-08-26T01:44:37.153Z,8.43
2022-08-26T01:47:07.717Z,8.20
2022-08-26T01:49:38.068Z,8.15
2022-08-26T01:52:09.138Z,8.23
2022-08-26T01:54:39.866Z,8.63
2022-08-26T01:57:08.220Z,9.15
2022-08-26T01:59:36.212Z,9.27
2022-08-26T02:02:03.907Z,9.93
2022-08-26T02:04:34.666Z,9.70
2022-08-26T02:07:05.779Z,9.68
2022-08-26T02:09:33.449Z,9.20
2022-08-26T02:12:13.408Z,9.27
2022-08-26T02:14:50.057Z,8.95
2022-08-26T02:17:23.019Z,9.20
2022-08-26T02:22:21.977Z,8.88
2022-08-26T02:24:51.895Z,9.15
2022-08-26T02:27:24.097Z,9.52
2022-08-26T02:29:56.486Z,9.50
2022-08-26T02:32:24.174Z,9.32
2022-08-26T02:34:52.598Z,9.40
2022-08-26T02:37:23.038Z,9.05
2022-08-26T02:39:50.878Z,9.20
2022-08-26T02:42:21.554Z,9.20
2022-08-26T02:44:49.147Z,9.52
2022-08-26T02:47:17.784Z,9.60
2022-08-26T02:49:47.287Z,9.65
2022-08-26T02:52:15.330Z,9.32
2022-08-26T02:54:42.930Z,9.68
2022-08-26T02:57:13.268Z,9.80
2022-08-26T02:59:42.425Z,9.35
2022-08-26T03:02:11.214Z,9.68
2022-08-26T03:04:39.933Z,9.00
2022-08-26T03:07:07.855Z,10.15
2022-08-26T03:09:36.388Z,10.45
2022-08-26T03:12:04.795Z,9.90
2022-08-26T03:14:32.915Z,8.90
2022-08-26T03:17:02.420Z,10.00
2022-08-26T03:19:32.051Z,8.77
2022-08-26T03:22:03.908Z,9.03
2022-08-26T03:24:32.098Z,9.90
2022-08-26T03:27:00.135Z,9.70
2022-08-26T03:29:49.542Z,9.30
2022-08-26T03:32:20.677Z,9.35
2022-08-26T03:34:48.359Z,10.43
2022-08-26T03:37:16.091Z,9.82
2022-08-26T03:39:44.741Z,10.10
2022-08-26T03:42:12.475Z,9.90
2022-08-26T03:44:42.260Z,10.20
2022-08-26T03:47:10.482Z,10.18
2022-08-26T03:49:39.480Z,9.68
2022-08-26T03:52:07.164Z,9.90
2022-08-26T03:54:35.716Z,9.98
2022-08-26T03:57:03.416Z,10.13
2022-08-26T03:59:31.112Z,10.38
2022-08-26T04:01:58.838Z,9.68
2022-08-26T04:04:26.696Z,10.27
2022-08-26T04:06:59.558Z,10.60
2022-08-26T04:09:28.422Z,10.35
2022-08-26T04:11:58.540Z,10.10
2022-08-26T04:14:28.423Z,10.20
2022-08-26T04:16:56.464Z,9.85
2022-08-26T04:19:26.042Z,10.70
2022-08-26T04:21:54.468Z,9.68
2022-08-26T04:24:25.976Z,10.52
2022-08-26T04:26:56.456Z,9.43
2022-08-26T04:29:26.794Z,9.88
2022-08-26T04:31:56.076Z,9.63
2022-08-26T04:34:27.191Z,10.55
2022-08-26T04:36:57.007Z,10.05
2022-08-26T04:39:27.979Z,11.02
2022-08-26T04:41:57.900Z,10.93
2022-08-26T04:44:28.358Z,11.63
2022-08-26T04:46:58.369Z,11.55
2022-08-26T04:49:27.589Z,12.13
2022-08-26T04:51:55.476Z,13.00
2022-08-26T04:54:23.672Z,12.73
2022-08-26T04:56:54.151Z,13.60
2022-08-26T04:59:21.790Z,13.90
2022-08-26T05:01:51.647Z,12.50
2022-08-26T05:04:21.285Z,12.85
2022-08-26T05:06:49.895Z,12.45
2022-08-26T05:09:18.354Z,12.65
2022-08-26T05:11:51.855Z,12.63
2022-08-26T05:14:23.070Z,12.25
2022-08-26T05:16:50.955Z,12.00
2022-08-26T05:19:19.368Z,13.90
2022-08-26T05:21:48.567Z,14.75
2022-08-26T05:24:17.400Z,16.33
2022-08-26T05:26:47.155Z,16.20
2022-08-26T05:29:15.845Z,17.05
2022-08-26T05:31:45.875Z,15.35
2022-08-26T05:34:13.803Z,16.73
2022-08-26T05:36:41.915Z,18.23
2022-08-26T05:39:10.658Z,18.52
2022-08-26T05:41:41.486Z,19.70
2022-08-26T05:44:14.081Z,20.75
2022-08-26T05:46:44.547Z,22.63
2022-08-26T05:49:15.435Z,22.77
2022-08-26T05:51:46.189Z,23.95
2022-08-26T05:54:14.400Z,26.23
2022-08-26T05:56:49.100Z,27.88
2022-08-26T05:59:16.998Z,27.17
2022-08-26T06:01:51.631Z,30.55
2022-08-26T06:04:20.635Z,32.30
2022-08-26T06:06:48.420Z,32.03
2022-08-26T06:09:18.317Z,34.92
2022-08-26T06:11:46.386Z,35.42
2022-08-26T06:14:14.119Z,37.35
2022-08-26T06:16:43.721Z,37.72
2022-08-26T06:19:14.346Z,40.78
2022-08-26T06:21:47.306Z,38.55
2022-08-26T06:24:36.550Z,44.28
2022-08-26T06:27:09.441Z,42.33
2022-08-26T06:29:37.967Z,42.67
2022-08-26T06:32:06.751Z,38.42
2022-08-26T06:34:34.753Z,42.38
2022-08-26T06:37:05.907Z,40.17
2022-08-26T06:39:34.482Z,40.05
2022-08-26T06:42:03.421Z,42.63
2022-08-26T06:44:35.218Z,43.10
2022-08-26T06:47:02.923Z,39.88
2022-08-26T06:49:30.580Z,36.60
2022-08-26T06:51:59.103Z,38.15
2022-08-26T06:54:31.487Z,38.50
2022-08-26T06:56:59.372Z,41.60
2022-08-26T06:59:27.844Z,37.88
2022-08-26T07:01:55.885Z,40.85
2022-08-26T07:04:24.867Z,39.72
2022-08-26T07:09:25.448Z,35.03
2022-08-26T07:11:56.027Z,35.00
2022-08-26T07:14:25.127Z,32.85
2022-08-26T07:16:54.470Z,35.20
2022-08-26T07:19:30.182Z,35.22
2022-08-26T07:22:00.346Z,34.28
2022-08-26T07:24:28.488Z,33.60
2022-08-26T07:27:01.851Z,30.08
2022-08-26T07:29:30.646Z,33.38
2022-08-26T07:31:58.556Z,31.65
2022-08-26T07:34:27.711Z,32.13
2022-08-26T07:36:56.941Z,34.58
2022-08-26T07:39:25.827Z,33.40
2022-08-26T07:41:54.368Z,31.40
2022-08-26T07:44:23.959Z,32.15
2022-08-26T07:46:53.050Z,32.28
2022-08-26T07:49:21.933Z,29.98
2022-08-26T07:51:50.206Z,29.77
2022-08-26T07:54:18.789Z,30.08
2022-08-26T07:56:48.454Z,34.72
2022-08-26T07:59:16.928Z,31.08
2022-08-26T08:01:46.762Z,29.73
2022-08-26T08:04:15.387Z,31.40
2022-08-26T08:06:43.935Z,29.55
2022-08-26T08:09:12.616Z,32.25
2022-08-26T08:11:41.525Z,29.35
2022-08-26T08:14:11.811Z,32.60
2022-08-26T08:16:45.842Z,32.25
2022-08-26T08:19:16.566Z,33.03
2022-08-26T08:21:44.612Z,32.88
2022-08-26T08:24:12.448Z,33.90
2022-08-26T08:26:41.272Z,32.70
2022-08-26T08:29:09.178Z,29.55
2022-08-26T08:31:57.090Z,29.73
2022-08-26T08:34:28.201Z,28.02
2022-08-26T08:36:56.259Z,30.40
2022-08-26T08:39:25.221Z,30.60
2022-08-26T08:42:10.934Z,28.80
2022-08-26T08:44:42.323Z,28.33
2022-08-26T08:47:18.881Z,30.15
2022-08-26T08:49:49.802Z,28.92
2022-08-26T08:52:28.841Z,29.45
2022-08-26T08:54:56.890Z,29.75
2022-08-26T08:57:34.092Z,27.77
2022-08-26T09:00:09.075Z,31.17
2022-08-26T09:02:44.096Z,29.63
2022-08-26T09:05:21.419Z,29.08
2022-08-26T09:07:53.039Z,27.85
2022-08-26T09:10:37.087Z,31.48
2022-08-26T09:13:09.255Z,27.98
2022-08-26T09:15:51.599Z,26.95
2022-08-26T09:18:30.866Z,26.10
2022-08-26T09:21:03.458Z,33.35
2022-08-26T09:23:32.318Z,30.48
2022-08-26T09:26:01.956Z,26.20
2022-08-26T09:28:31.828Z,27.42
2022-08-26T09:31:07.989Z,26.02
2022-08-26T09:33:40.133Z,30.95
2022-08-26T09:36:22.607Z,27.80
2022-08-26T09:38:51.762Z,26.30
2022-08-26T09:41:26.647Z,29.83
2022-08-26T09:44:14.729Z,29.48
2022-08-26T09:46:46.973Z,28.35
2022-08-26T09:49:35.565Z,26.58
2022-08-26T09:52:26.576Z,29.50
2022-08-26T09:55:11.282Z,26.25
2022-08-26T09:57:47.196Z,29.55
2022-08-26T10:00:29.454Z,24.75
2022-08-26T10:02:58.243Z,24.58
2022-08-26T10:05:42.205Z,26.15
2022-08-26T10:08:23.468Z,24.77
2022-08-26T10:10:52.995Z,25.55
2022-08-26T10:13:26.621Z,27.88
2022-08-26T10:16:04.457Z,28.48
2022-08-26T10:18:36.561Z,26.52
2022-08-26T10:21:09.906Z,27.23
2022-08-26T10:23:43.436Z,29.23
2022-08-26T10:26:17.289Z,26.85
2022-08-26T10:28:53.615Z,24.83
2022-08-26T10:31:27.413Z,24.45
2022-08-26T10:34:00.249Z,26.02
2022-08-26T10:37:14.654Z,23.67
2022-08-26T10:39:43.746Z,24.73
2022-08-26T10:42:18.360Z,30.65
2022-08-26T10:44:50.508Z,25.65
2022-08-26T10:47:22.311Z,23.27
2022-08-26T10:52:29.380Z,21.92
2022-08-26T10:55:08.476Z,21.58
2022-08-26T10:57:45.206Z,25.30
2022-08-26T11:00:37.028Z,23.20
2022-08-26T11:06:17.130Z,22.23
2022-08-26T11:08:48.015Z,21.85
2022-08-26T11:11:48.671Z,21.48
2022-08-26T11:14:46.034Z,23.17
2022-08-26T11:17:58.195Z,19.85
2022-08-26T11:20:36.672Z,21.63
2022-08-26T11:23:38.799Z,20.75
2022-08-26T11:26:30.052Z,22.25
2022-08-26T11:29:04.473Z,19.65
2022-08-26T11:31:57.302Z,21.45
2022-08-26T11:34:55.020Z,18.52
2022-08-26T11:37:30.706Z,17.90
2022-08-26T11:40:02.945Z,16.17
2022-08-26T11:42:38.731Z,17.77
2022-08-26T11:45:19.198Z,17.27
2022-08-26T11:47:49.446Z,18.35
2022-08-26T11:50:20.080Z,18.77
2022-08-26T11:52:55.884Z,18.65
2022-08-26T11:55:24.206Z,17.40
2022-08-26T11:57:56.211Z,15.88
2022-08-26T12:00:33.557Z,19.52
2022-08-26T12:03:06.614Z,17.50
2022-08-26T12:05:37.390Z,18.70
2022-08-26T12:08:10.650Z,17.15
2022-08-26T12:10:39.651Z,16.20
2022-08-26T12:13:08.299Z,16.52
2022-08-26T12:15:37.325Z,17.88
2022-08-26T12:18:29.005Z,17.20
2022-08-26T12:21:00.106Z,16.92
2022-08-26T12:23:38.326Z,15.45
2022-08-26T12:26:11.324Z,15.93
2022-08-26T12:28:52.173Z,15.82
2022-08-26T12:31:27.724Z,17.00
2022-08-26T12:33:56.884Z,15.45
2022-08-26T12:36:31.389Z,15.43
2022-08-26T12:39:08.163Z,14.52
2022-08-26T12:41:41.514Z,13.23
2022-08-26T12:44:09.547Z,12.98
2022-08-26T12:46:38.608Z,14.77
2022-08-26T12:49:06.387Z,13.25
2022-08-26T12:51:35.182Z,13.95
2022-08-26T12:54:06.677Z,12.52
2022-08-26T12:56:39.422Z,12.90
2022-08-26T12:59:12.208Z,12.27
2022-08-26T13:01:45.123Z,12.60
2022-08-26T13:04:39.664Z,12.40
2022-08-26T13:07:15.307Z,11.90
2022-08-26T13:09:43.104Z,12.27
2022-08-26T13:12:11.560Z,10.57
2022-08-26T13:14:40.462Z,11.93
2022-08-26T13:17:09.406Z,10.70
2022-08-26T13:19:37.036Z,11.50
2022-08-26T13:22:06.022Z,10.30
2022-08-26T13:24:35.802Z,10.23
2022-08-26T13:27:05.851Z,9.35
2022-08-26T13:29:33.530Z,9.75
2022-08-26T13:32:01.292Z,10.90
2022-08-26T13:34:31.417Z,9.00
2022-08-26T13:36:59.472Z,8.90
2022-08-26T13:39:27.539Z,8.15
2022-08-26T13:41:55.749Z,8.30
2022-08-26T13:44:23.417Z,8.73
2022-08-26T13:46:51.078Z,8.88
2022-08-26T13:49:18.895Z,8.30
2022-08-26T13:51:47.852Z,8.27
2022-08-26T13:54:15.487Z,7.03
2022-08-26T13:56:43.153Z,7.60
2022-08-26T13:59:10.779Z,6.25
2022-08-26T14:01:39.978Z,5.63
2022-08-26T14:04:08.573Z,6.55
2022-08-26T14:06:36.212Z,5.82
2022-08-26T14:09:05.606Z,5.50
2022-08-26T14:11:34.823Z,5.07
2022-08-26T14:14:20.875Z,5.30
2022-08-26T14:16:56.073Z,5.20
2022-08-26T14:19:29.896Z,5.35
2022-08-26T14:21:58.762Z,5.30
2022-08-26T14:24:27.904Z,4.78
2022-08-26T14:26:55.550Z,4.90
2022-08-26T14:29:23.288Z,4.78
2022-08-26T14:31:50.995Z,5.28
2022-08-26T14:34:18.896Z,4.88
2022-08-26T14:36:46.535Z,4.88
2022-08-26T14:39:14.990Z,4.78
2022-08-26T14:41:54.015Z,4.70
2022-08-26T14:44:24.668Z,4.97
2022-08-26T14:46:53.505Z,4.68
2022-08-26T14:49:22.849Z,4.57
2022-08-26T14:51:51.124Z,4.90
2022-08-26T14:54:18.649Z,4.97
2022-08-26T14:56:51.119Z,5.03
2022-08-26T14:59:21.722Z,4.68
2022-08-26T15:01:50.729Z,5.18
2022-08-26T15:04:18.819Z,5.68
2022-08-26T15:06:46.759Z,4.85
2022-08-26T15:09:15.232Z,5.50
2022-08-26T15:11:43.221Z,5.20
2022-08-26T15:14:14.801Z,4.97
2022-08-26T15:16:48.096Z,4.85
2022-08-26T15:19:15.902Z,5.00
2022-08-26T15:21:45.233Z,4.90
2022-08-26T15:24:13.372Z,4.97
2022-08-26T15:26:41.471Z,4.90
2022-08-26T15:29:09.102Z,5.80
2022-08-26T15:31:38.160Z,5.25
2022-08-26T15:34:12.107Z,5.25
2022-08-26T15:36:44.719Z,5.90
2022-08-26T15:39:12.622Z,5.93
2022-08-26T15:41:41.151Z,5.00
2022-08-26T15:44:09.411Z,5.47
2022-08-26T15:46:39.405Z,5.78
2022-08-26T15:49:08.048Z,5.53
2022-08-26T15:51:45.720Z,5.53
2022-08-26T15:54:15.919Z,5.03
2022-08-26T15:56:43.687Z,4.80
2022-08-26T15:59:12.267Z,5.07
2022-08-26T16:01:41.310Z,4.55
2022-08-26T16:04:09.069Z,4.82
2022-08-26T16:06:39.744Z,5.75
2022-08-26T16:09:08.164Z,5.35
2022-08-26T16:11:37.322Z,5.82
2022-08-26T16:14:05.470Z,5.57
2022-08-26T16:16:33.324Z,4.80
2022-08-26T16:19:06.828Z,4.47
2022-08-26T16:21:35.403Z,4.20
2022-08-26T16:24:03.767Z,4.47
2022-08-26T16:26:34.520Z,4.10
2022-08-26T16:29:03.354Z,4.20
2022-08-26T16:31:30.983Z,4.50
2022-08-26T16:33:59.014Z,4.30
2022-08-26T16:36:27.972Z,3.97
2022-08-26T16:38:56.321Z,4.30
2022-08-26T16:41:25.220Z,3.90
2022-08-26T16:43:53.509Z,3.67
2022-08-26T16:46:23.596Z,3.50
2022-08-26T16:48:52.269Z,3.45
2022-08-26T16:51:23.286Z,3.78
2022-08-26T16:53:53.402Z,3.53
2022-08-26T16:56:33.482Z,3.40
2022-08-26T16:59:02.920Z,3.55
2022-08-26T17:01:30.663Z,3.95
2022-08-26T17:03:58.357Z,3.58
2022-08-26T17:06:25.990Z,3.50
2022-08-26T17:08:55.052Z,3.40
2022-08-26T17:11:22.700Z,3.53
2022-08-26T17:13:50.343Z,3.05
2022-08-26T17:16:18.044Z,3.25
2022-08-26T17:18:45.714Z,3.33
2022-08-26T17:21:14.591Z,3.70
2022-08-26T17:23:43.577Z,3.85
2022-08-26T17:26:13.564Z,3.53
2022-08-26T17:28:41.719Z,3.97
2022-08-26T17:31:14.163Z,4.05
2022-08-26T17:33:41.848Z,3.70
2022-08-26T17:36:10.460Z,3.50
2022-08-26T17:38:38.774Z,3.80
2022-08-26T17:41:08.223Z,3.30
2022-08-26T17:43:38.268Z,3.60
2022-08-26T17:46:08.151Z,3.05
2022-08-26T17:48:36.047Z,3.63
2022-08-26T17:51:07.855Z,3.63
2022-08-26T17:56:03.187Z,3.60
2022-08-26T17:58:30.874Z,4.07
2022-08-26T18:01:05.836Z,3.88
2022-08-26T18:03:33.890Z,3.83
2022-08-26T18:06:01.974Z,3.95
2022-08-26T18:08:29.595Z,3.60
2022-08-26T18:10:57.259Z,3.88
2022-08-26T18:13:25.052Z,3.55
2022-08-26T18:15:53.070Z,3.60
2022-08-26T18:18:22.148Z,3.97
2022-08-26T18:20:52.548Z,3.80
2022-08-26T18:23:27.474Z,3.75
2022-08-26T18:25:59.007Z,3.50
2022-08-26T18:28:26.758Z,3.20
2022-08-26T18:30:54.371Z,3.38
2022-08-26T18:33:26.430Z,3.00
2022-08-26T18:35:54.228Z,3.22
2022-08-26T18:38:22.387Z,3.10
2022-08-26T18:40:50.189Z,2.80
2022-08-26T18:43:17.756Z,2.65
2022-08-26T18:45:45.762Z,2.80
2022-08-26T18:48:14.523Z,2.80
2022-08-26T18:50:47.338Z,2.75
2022-08-26T18:53:15.623Z,3.45
2022-08-26T18:55:43.490Z,3.22
2022-08-26T18:58:11.583Z,2.40
2022-08-26T19:00:39.416Z,3.65
2022-08-26T19:03:08.218Z,2.97
2022-08-26T19:05:47.527Z,3.05
2022-08-26T19:08:15.138Z,2.83
2022-08-26T19:10:42.821Z,2.70
2022-08-26T19:13:10.935Z,2.67
2022-08-26T19:15:40.185Z,2.80
2022-08-26T19:18:08.207Z,3.20
2022-08-26T19:20:40.661Z,2.83
2022-08-26T19:23:30.487Z,3.75
2022-08-26T19:25:59.390Z,3.50
2022-08-26T19:28:27.051Z,3.10
2022-08-26T19:30:55.040Z,3.10
2022-08-26T19:33:22.843Z,3.40
2022-08-26T19:35:50.471Z,3.00
2022-08-26T19:38:19.464Z,2.70
2022-08-26T19:40:47.077Z,3.20
2022-08-26T19:43:14.695Z,2.95
2022-08-26T19:45:42.415Z,2.70
2022-08-26T19:48:11.255Z,3.15
2022-08-26T19:50:38.973Z,2.97
2022-08-26T19:53:06.584Z,2.90
2022-08-26T19:55:35.683Z,2.65
2022-08-26T19:58:03.788Z,3.20
2022-08-26T20:00:33.530Z,2.72
2022-08-26T20:03:01.413Z,3.33
2022-08-26T20:05:29.265Z,3.50
2022-08-26T20:07:57.082Z,3.17
2022-08-26T20:10:25.068Z,3.05
2022-08-26T20:12:54.139Z,3.30
2022-08-26T20:15:23.031Z,3.58
2022-08-26T20:17:51.286Z,3.40
2022-08-26T20:20:36.663Z,3.45
2022-08-26T20:23:05.107Z,3.28
2022-08-26T20:25:33.499Z,3.97
2022-08-26T20:28:03.056Z,3.28
2022-08-26T20:30:30.849Z,3.10
2022-08-26T20:32:58.428Z,3.40
2022-08-26T20:35:26.102Z,3.30
2022-08-26T20:37:53.713Z,3.20
2022-08-26T20:40:22.536Z,3.00
2022-08-26T20:42:50.240Z,3.33
2022-08-26T20:45:19.300Z,3.30
2022-08-26T20:47:46.952Z,3.13
2022-08-26T20:50:14.603Z,3.10
2022-08-26T20:52:42.469Z,3.10
2022-08-26T20:55:10.724Z,2.90
2022-08-26T20:57:38.472Z,3.10
2022-08-26T21:00:07.567Z,3.08
2022-08-26T21:02:36.939Z,3.40
2022-08-26T21:05:05.122Z,3.10
2022-08-26T21:07:32.779Z,3.15
2022-08-26T21:10:00.596Z,3.20
2022-08-26T21:12:28.311Z,3.05
2022-08-26T21:14:56.078Z,3.03
2022-08-26T21:17:23.793Z,2.97
2022-08-26T21:19:52.779Z,2.83
2022-08-26T21:22:20.675Z,3.00
2022-08-26T21:24:48.499Z,3.30
2022-08-26T21:27:17.677Z,3.72
2022-08-26T21:29:53.715Z,3.60
2022-08-26T21:32:21.347Z,3.65
2022-08-26T21:34:48.930Z,5.75
2022-08-26T21:37:17.872Z,4.63
2022-08-26T21:39:45.599Z,4.72
2022-08-26T21:42:13.613Z,4.20
2022-08-26T21:44:41.205Z,4.38
2022-08-26T21:47:08.915Z,4.32
2022-08-26T21:49:36.553Z,4.60
2022-08-26T21:52:05.431Z,4.22
2022-08-26T21:54:34.423Z,5.22
2022-08-26T21:57:02.026Z,4.85
2022-08-26T21:59:29.777Z,4.40
2022-08-26T22:01:57.510Z,5.10
2022-08-26T22:04:25.506Z,4.97
2022-08-26T22:06:55.204Z,4.57
2022-08-26T22:09:28.018Z,4.53
2022-08-26T22:11:57.531Z,4.50
2022-08-26T22:14:30.476Z,4.70
2022-08-26T22:16:59.803Z,4.70
2022-08-26T22:19:27.468Z,4.57
2022-08-26T22:21:56.207Z,4.80
2022-08-26T22:24:26.356Z,4.75
2022-08-26T22:26:54.520Z,5.32
2022-08-26T22:29:24.944Z,5.05
2022-08-26T22:31:52.776Z,4.88
2022-08-26T22:34:22.801Z,4.90
2022-08-26T22:36:51.124Z,5.30
2022-08-26T22:39:21.234Z,4.82
2022-08-26T22:41:49.504Z,4.97
2022-08-26T22:44:18.300Z,5.32
2022-08-26T22:46:48.323Z,5.28
2022-08-26T22:49:16.737Z,4.95
2022-08-26T22:51:45.033Z,5.30
2022-08-26T22:54:12.889Z,4.95
2022-08-26T22:56:41.114Z,5.72
2022-08-26T22:59:09.876Z,5.13
2022-08-26T23:01:39.248Z,5.63
2022-08-26T23:04:09.337Z,4.85
2022-08-26T23:06:38.050Z,5.22
2022-08-26T23:09:06.671Z,4.70
2022-08-26T23:11:34.596Z,4.82
2022-08-26T23:14:06.445Z,5.30
2022-08-26T23:16:37.933Z,5.43
2022-08-26T23:19:09.816Z,6.00
2022-08-26T23:21:37.468Z,6.35
2022-08-26T23:24:05.341Z,6.32
2022-08-26T23:26:33.969Z,5.85
2022-08-26T23:29:01.996Z,6.50
2022-08-26T23:31:29.847Z,6.50
2022-08-26T23:34:15.149Z,6.60
2022-08-26T23:36:44.235Z,5.90
2022-08-26T23:39:14.606Z,6.00
2022-08-26T23:41:42.555Z,6.07
2022-08-26T23:44:10.325Z,6.30
2022-08-26T23:46:37.986Z,5.93
2022-08-26T23:49:05.849Z,6.25
2022-08-26T23:51:51.084Z,4.97
2022-08-26T23:54:20.511Z,4.95
2022-08-26T23:56:48.267Z,5.10
2022-08-26T23:59:15.876Z,4.35
